createdAt,value
2023-03-07T17:55:51.842Z,3.00
2023-03-07T18:00:56.937Z,2.90
2023-03-07T18:06:02.069Z,3.00
2023-03-07T18:11:11.036Z,3.20
2023-03-07T18:16:16.371Z,3.40
2023-03-07T18:21:23.467Z,3.50
2023-03-07T18:26:31.372Z,3.60
2023-03-07T18:31:38.594Z,3.70
2023-03-07T18:36:44.652Z,3.70
2023-03-07T18:41:52.471Z,3.70
2023-03-07T18:46:57.825Z,3.70
2023-03-07T18:52:03.123Z,3.70
2023-03-07T18:57:10.893Z,3.70
2023-03-07T19:02:16.277Z,3.70
2023-03-07T19:07:23.281Z,3.70
2023-03-07T19:12:31.188Z,3.70
2023-03-07T19:17:41.256Z,3.70
2023-03-07T19:22:46.382Z,3.70
2023-03-07T19:27:54.080Z,3.70
2023-03-07T19:32:59.142Z,3.60
2023-03-07T19:38:04.655Z,3.60
2023-03-07T19:43:12.375Z,3.60
2023-03-07T19:48:17.525Z,3.60
2023-03-07T19:53:22.780Z,3.60
2023-03-07T19:58:30.710Z,3.60
2023-03-07T20:03:35.767Z,3.60
2023-03-07T20:08:40.969Z,3.50
2023-03-07T20:13:50.426Z,3.50
2023-03-07T20:18:55.961Z,3.50
2023-03-07T20:24:01.899Z,3.50
2023-03-07T20:29:10.122Z,3.50
2023-03-07T20:34:15.774Z,3.50
2023-03-07T20:39:20.858Z,3.40
2023-03-07T20:44:29.169Z,3.40
2023-03-07T20:49:34.270Z,3.40
2023-03-07T20:54:40.921Z,3.40
2023-03-07T20:59:48.707Z,3.40
2023-03-07T21:04:54.003Z,3.40
2023-03-07T21:09:59.141Z,3.40
2023-03-07T21:15:08.205Z,3.40
2023-03-07T21:20:17.202Z,3.10
2023-03-07T21:25:22.338Z,3.30
2023-03-07T21:30:34.154Z,3.30
2023-03-07T21:35:42.265Z,3.20
2023-03-07T21:40:47.861Z,3.20
2023-03-07T21:46:00.001Z,3.00
2023-03-07T21:51:05.432Z,3.00
2023-03-07T21:56:12.015Z,3.00
2023-03-07T22:01:21.690Z,3.00
2023-03-07T22:06:27.470Z,3.00
2023-03-07T22:11:33.009Z,2.90
2023-03-07T22:16:40.870Z,2.90
2023-03-07T22:21:46.096Z,2.90
2023-03-07T22:26:51.437Z,2.90
2023-03-07T22:31:59.385Z,2.90
2023-03-07T22:37:04.688Z,2.90
2023-03-07T22:42:10.206Z,2.90
